Time;durP1;ratioP1;P1;durP2;ratioP2;P2;SDS_P1;SDS_P2;PMS_P1;PMS_P2;Temp;Humidity;BMP_temperature;BMP_pressure;BME280_temperature;BME280_humidity;BME280_pressure;Samples;Min_cycle;Max_cycle;Signal;HPM_P1;HPM_P2
2022/09/19 00:01:54;;;;;;;1.63;0.90;;;6.70;99.90;;;;;;4989796;28;20054;-71
2022/09/19 00:04:28;;;;;;;2.13;0.90;;;6.70;99.90;;;;;;4990071;28;20089;-71
2022/09/19 00:06:57;;;;;;;1.42;0.80;;;6.70;99.90;;;;;;4971977;28;20641;-72
2022/09/19 00:09:28;;;;;;;1.92;1.10;;;6.70;99.90;;;;;;4978093;28;20051;-72
2022/09/19 00:11:56;;;;;;;6.33;2.97;;;6.60;99.90;;;;;;4989343;28;20049;-72
2022/09/19 00:14:27;;;;;;;1.67;0.90;;;6.60;99.90;;;;;;4987458;28;20505;-72
2022/09/19 00:16:57;;;;;;;2.00;0.90;;;6.60;99.90;;;;;;4986835;28;20438;-71
2022/09/19 00:19:26;;;;;;;1.50;0.82;;;6.60;99.90;;;;;;4980181;28;20050;-72
2022/09/19 00:21:56;;;;;;;2.30;0.90;;;6.60;99.90;;;;;;4986687;28;20508;-72
2022/09/19 00:27:10;;;;;;;1.77;1.00;;;6.70;99.90;;;;;;4992293;28;20534;-71
2022/09/19 00:29:41;;;;;;;1.42;0.82;;;6.80;99.90;;;;;;5004233;28;20056;-72
2022/09/19 00:32:12;;;;;;;1.00;0.70;;;6.90;99.90;;;;;;4993938;28;20464;-71
2022/09/19 00:34:46;;;;;;;1.38;0.82;;;6.90;99.90;;;;;;4992453;28;20440;-71
2022/09/19 00:37:18;;;;;;;3.08;1.08;;;6.90;99.90;;;;;;4988928;28;20042;-72
2022/09/19 00:39:46;;;;;;;2.33;1.02;;;6.90;99.90;;;;;;5005409;28;20464;-71
2022/09/19 00:42:23;;;;;;;1.08;0.82;;;7.00;99.90;;;;;;5009173;28;20042;-71
2022/09/19 00:44:51;;;;;;;0.70;0.70;;;7.00;99.90;;;;;;4992388;28;20125;-71
2022/09/19 00:47:24;;;;;;;2.08;0.77;;;6.90;99.90;;;;;;4976314;28;20561;-73
2022/09/19 00:49:56;;;;;;;1.20;0.80;;;6.90;99.90;;;;;;5007613;28;20568;-72
2022/09/19 00:52:40;;;;;;;1.42;0.70;;;6.90;99.90;;;;;;4986030;28;20042;-73
2022/09/19 00:55:08;;;;;;;4.57;0.95;;;7.00;99.90;;;;;;4989137;28;20250;-71
2022/09/19 00:57:47;;;;;;;1.70;0.75;;;7.00;99.90;;;;;;5009042;28;20034;-72
2022/09/19 01:00:14;;;;;;;3.75;0.60;;;7.00;99.90;;;;;;4984736;28;20058;-72
2022/09/19 01:02:42;;;;;;;1.73;0.70;;;7.00;99.90;;;;;;4984465;28;20355;-72
2022/09/19 01:05:10;;;;;;;1.52;0.80;;;7.00;99.90;;;;;;4975155;28;20046;-71
2022/09/19 01:08:03;;;;;;;1.20;0.77;;;7.00;99.90;;;;;;4989856;28;20084;-71
2022/09/19 01:10:45;;;;;;;0.90;0.75;;;6.90;99.90;;;;;;4985223;28;20045;-71
2022/09/19 01:13:35;;;;;;;1.33;0.90;;;6.90;99.90;;;;;;4975601;28;20153;-71
2022/09/19 01:16:33;;;;;;;2.35;0.80;;;6.90;99.90;;;;;;4992113;28;20042;-71
2022/09/19 01:19:35;;;;;;;1.05;0.85;;;6.90;99.90;;;;;;4980548;28;20030;-71
2022/09/19 01:22:11;;;;;;;3.20;0.90;;;6.90;99.90;;;;;;4990446;28;20048;-71
2022/09/19 01:25:15;;;;;;;1.70;0.80;;;7.00;99.90;;;;;;4992113;28;20207;-71
2022/09/19 01:28:08;;;;;;;1.17;0.77;;;7.00;99.90;;;;;;4974143;28;20050;-72
2022/09/19 01:31:17;;;;;;;3.10;1.00;;;7.00;99.90;;;;;;4995416;28;20042;-71
2022/09/19 01:34:13;;;;;;;1.05;0.77;;;6.90;99.90;;;;;;4989333;28;20046;-72
2022/09/19 01:37:05;;;;;;;2.22;0.98;;;7.00;99.90;;;;;;5005006;28;20382;-67
2022/09/19 01:39:38;;;;;;;3.92;1.00;;;7.00;99.90;;;;;;4965027;28;20129;-70
2022/09/19 01:42:06;;;;;;;2.03;1.08;;;7.10;99.90;;;;;;4991746;28;20046;-69
2022/09/19 01:44:34;;;;;;;2.22;0.93;;;7.00;99.90;;;;;;4986529;28;20034;-70
2022/09/19 01:47:25;;;;;;;3.55;1.02;;;7.10;99.90;;;;;;4992085;28;20500;-71
2022/09/19 01:50:45;;;;;;;4.97;1.15;;;7.10;99.90;;;;;;4986111;28;20093;-70
2022/09/19 01:53:18;;;;;;;6.35;1.67;;;7.20;99.90;;;;;;4909291;29;20075;-69
2022/09/19 01:56:19;;;;;;;1.92;1.40;;;7.20;99.90;;;;;;4917098;29;20574;-72
2022/09/19 01:59:01;;;;;;;5.70;1.50;;;7.30;99.90;;;;;;4914263;29;20134;-71
2022/09/19 02:01:46;;;;;;;5.50;1.30;;;7.30;99.90;;;;;;4927612;29;20059;-71
2022/09/19 02:04:23;;;;;;;2.70;1.20;;;7.40;99.90;;;;;;4910517;29;20060;-71
2022/09/19 02:07:01;;;;;;;4.15;1.63;;;7.40;99.90;;;;;;4930898;29;20404;-71
2022/09/19 02:09:48;;;;;;;4.70;1.60;;;7.40;99.90;;;;;;4900276;29;20477;-71
2022/09/19 02:12:18;;;;;;;2.90;1.40;;;7.40;99.90;;;;;;4915677;29;20108;-71
2022/09/19 02:14:54;;;;;;;5.75;1.40;;;7.40;99.90;;;;;;4899294;29;20052;-72
2022/09/19 02:17:35;;;;;;;3.97;1.80;;;7.30;99.90;;;;;;4897038;29;20137;-72
2022/09/19 02:20:13;;;;;;;3.33;1.65;;;7.30;99.90;;;;;;4912332;29;20439;-72
2022/09/19 02:22:47;;;;;;;3.97;1.77;;;7.30;99.90;;;;;;4931295;29;20046;-71
2022/09/19 02:25:21;;;;;;;4.13;1.50;;;7.30;99.90;;;;;;4904953;29;20044;-72
2022/09/19 02:28:04;;;;;;;3.85;1.60;;;7.40;99.90;;;;;;4932337;28;20059;-71
2022/09/19 02:30:32;;;;;;;6.25;1.70;;;7.30;99.90;;;;;;4987387;28;20057;-73
2022/09/19 02:33:06;;;;;;;6.00;2.05;;;7.40;99.90;;;;;;4973817;28;20136;-71
2022/09/19 02:35:49;;;;;;;5.65;1.60;;;7.40;99.90;;;;;;5006658;28;20038;-72
2022/09/19 02:38:31;;;;;;;5.85;1.83;;;7.50;99.90;;;;;;4982069;28;20467;-71
2022/09/19 02:41:42;;;;;;;5.82;1.70;;;7.40;99.90;;;;;;4990317;28;20060;-72
2022/09/19 02:44:21;;;;;;;7.68;1.98;;;7.50;99.90;;;;;;4977255;28;20141;-71
2022/09/19 02:47:01;;;;;;;5.18;1.92;;;7.50;99.90;;;;;;4990916;28;20046;-71
2022/09/19 02:49:34;;;;;;;6.93;1.85;;;7.50;99.90;;;;;;4971808;28;20434;-70
2022/09/19 02:52:08;;;;;;;4.82;1.80;;;7.60;99.90;;;;;;4973457;28;20084;-71
2022/09/19 02:54:38;;;;;;;5.65;2.28;;;7.60;99.90;;;;;;4973647;28;20140;-71
2022/09/19 02:57:10;;;;;;;5.88;2.20;;;7.60;99.90;;;;;;4973641;28;20042;-71
2022/09/19 02:59:42;;;;;;;7.13;2.30;;;7.60;99.90;;;;;;4975918;28;20051;-71
2022/09/19 03:02:22;;;;;;;7.90;2.70;;;7.60;99.90;;;;;;4987401;28;20117;-69
2022/09/19 03:05:19;;;;;;;6.78;2.67;;;7.60;99.90;;;;;;4990139;28;20042;-70
2022/09/19 03:07:52;;;;;;;6.03;2.60;;;7.70;99.90;;;;;;4990428;28;20493;-69
2022/09/19 03:10:24;;;;;;;5.22;2.80;;;7.70;99.90;;;;;;5005542;28;20046;-69
2022/09/19 03:13:10;;;;;;;5.20;2.60;;;7.80;99.90;;;;;;4987365;28;20105;-71
2022/09/19 03:15:47;;;;;;;7.10;2.65;;;7.80;99.90;;;;;;4989761;28;20042;-69
2022/09/19 03:18:21;;;;;;;5.82;2.63;;;7.80;99.90;;;;;;4989777;28;20046;-70
2022/09/19 03:20:58;;;;;;;7.20;2.80;;;7.80;99.90;;;;;;4987730;28;20055;-69
2022/09/19 03:23:34;;;;;;;6.60;2.67;;;7.80;99.90;;;;;;4967556;28;20042;-70
2022/09/19 03:26:03;;;;;;;10.50;2.92;;;7.80;99.90;;;;;;5004507;28;20043;-69
2022/09/19 03:28:30;;;;;;;5.35;2.58;;;7.80;99.90;;;;;;4992034;28;20542;-69
2022/09/19 03:30:59;;;;;;;7.40;2.60;;;7.90;99.90;;;;;;4992539;28;20042;-70
2022/09/19 03:33:27;;;;;;;6.22;2.42;;;7.90;99.90;;;;;;4977208;28;20037;-71
2022/09/19 03:35:59;;;;;;;6.15;2.33;;;7.90;99.90;;;;;;5005780;28;20475;-69
2022/09/19 03:38:26;;;;;;;5.13;2.60;;;7.80;99.90;;;;;;4988189;28;20042;-69
2022/09/19 03:40:53;;;;;;;6.32;2.35;;;7.80;99.90;;;;;;4985967;28;20042;-69
2022/09/19 03:43:21;;;;;;;4.18;2.50;;;7.80;99.90;;;;;;4985349;28;20042;-68
2022/09/19 03:45:48;;;;;;;7.85;2.50;;;7.90;99.90;;;;;;4988434;28;20401;-68
2022/09/19 03:48:17;;;;;;;9.23;3.25;;;7.80;99.90;;;;;;4989136;28;20381;-68
2022/09/19 03:50:45;;;;;;;7.05;2.50;;;7.80;99.90;;;;;;5003335;28;20038;-68
2022/09/19 03:53:14;;;;;;;5.13;2.05;;;7.80;99.90;;;;;;4988851;28;20038;-69
2022/09/19 03:55:41;;;;;;;5.82;2.60;;;7.80;99.90;;;;;;4975907;28;20523;-70
2022/09/19 03:58:13;;;;;;;;;;;7.90;99.90;;;;;;5009883;28;20076;-68
2022/09/19 04:00:40;;;;;;;6.07;2.65;;;7.90;99.90;;;;;;4980575;28;20399;-69
2022/09/19 04:03:10;;;;;;;5.25;3.15;;;7.90;99.90;;;;;;4991359;28;20040;-70
2022/09/19 04:05:39;;;;;;;5.47;2.63;;;7.90;99.90;;;;;;4989306;28;20069;-71
2022/09/19 04:08:07;;;;;;;10.30;2.92;;;7.90;99.90;;;;;;4991838;28;20042;-70
2022/09/19 04:10:36;;;;;;;6.95;2.60;;;7.90;99.90;;;;;;5007417;28;20044;-70
2022/09/19 04:13:03;;;;;;;7.93;2.92;;;8.00;99.90;;;;;;4970154;28;20046;-70
2022/09/19 04:15:31;;;;;;;8.43;3.05;;;8.00;99.90;;;;;;4993316;28;20038;-71
2022/09/19 04:18:03;;;;;;;9.85;3.53;;;8.00;99.90;;;;;;5009585;28;20444;-71
2022/09/19 04:20:31;;;;;;;6.53;3.22;;;8.10;99.90;;;;;;5002075;28;20065;-71
2022/09/19 04:23:16;;;;;;;7.30;2.80;;;8.10;99.90;;;;;;4994558;28;20607;-71
2022/09/19 04:26:03;;;;;;;6.78;3.22;;;8.10;99.90;;;;;;5007174;28;20042;-71
2022/09/19 04:28:35;;;;;;;6.28;3.28;;;8.10;99.90;;;;;;4991656;28;20404;-71
2022/09/19 04:31:02;;;;;;;9.02;3.65;;;8.20;99.90;;;;;;5011228;28;20445;-69
2022/09/19 04:33:31;;;;;;;10.20;3.33;;;8.20;99.90;;;;;;4990191;28;20489;-71
2022/09/19 04:36:00;;;;;;;8.45;3.72;;;8.20;99.90;;;;;;4992968;28;20100;-71
2022/09/19 04:38:30;;;;;;;8.00;3.20;;;8.10;99.90;;;;;;5009583;28;20497;-71
2022/09/19 04:40:59;;;;;;;10.63;3.67;;;8.10;99.90;;;;;;4994528;28;20050;-72
2022/09/19 04:43:29;;;;;;;7.85;3.40;;;8.10;99.90;;;;;;4977294;28;20073;-71
2022/09/19 04:46:22;;;;;;;9.68;3.75;;;8.10;99.90;;;;;;5004272;28;20432;-71
2022/09/19 04:48:58;;;;;;;9.60;3.90;;;8.10;99.90;;;;;;4992510;28;20121;-70
2022/09/19 04:51:31;;;;;;;9.25;3.65;;;8.20;99.90;;;;;;4991086;28;20034;-70
2022/09/19 04:54:00;;;;;;;10.48;4.25;;;8.20;99.90;;;;;;4992584;28;20519;-71
2022/09/19 04:56:28;;;;;;;7.60;3.10;;;8.20;99.90;;;;;;4992802;28;20523;-70
2022/09/19 04:58:55;;;;;;;10.07;3.50;;;8.30;99.90;;;;;;4992749;28;20038;-68
2022/09/19 05:01:24;;;;;;;8.27;3.25;;;8.30;99.90;;;;;;4992934;28;20042;-71
2022/09/19 05:03:52;;;;;;;7.13;3.42;;;8.30;99.90;;;;;;5008790;28;20038;-71
2022/09/19 05:06:20;;;;;;;7.97;3.33;;;8.30;99.90;;;;;;5008494;28;20117;-72
2022/09/19 05:08:47;;;;;;;12.77;4.13;;;8.30;99.90;;;;;;4993811;28;20042;-70
2022/09/19 05:11:23;;;;;;;10.63;3.45;;;8.30;99.90;;;;;;4992295;28;20038;-73
2022/09/19 05:13:52;;;;;;;9.25;3.80;;;8.40;99.90;;;;;;4993991;28;20039;-72
2022/09/19 05:16:23;;;;;;;;;;;8.40;99.90;;;;;;4973595;28;20139;-71
2022/09/19 05:19:02;;;;;;;6.32;4.03;;;8.40;99.90;;;;;;4976556;28;20449;-69
2022/09/19 05:21:29;;;;;;;7.88;3.60;;;8.40;99.90;;;;;;5008199;28;20043;-69
2022/09/19 05:24:00;;;;;;;12.73;4.45;;;8.40;99.90;;;;;;4992476;28;20092;-70
2022/09/19 05:26:28;;;;;;;7.18;3.88;;;8.40;99.90;;;;;;4991753;28;20073;-70
2022/09/19 05:28:59;;;;;;;8.15;3.90;;;8.40;99.90;;;;;;4990270;28;20425;-70
2022/09/19 05:31:35;;;;;;;7.78;3.78;;;8.40;99.90;;;;;;4991983;28;20046;-69
2022/09/19 05:34:22;;;;;;;7.97;4.38;;;8.40;99.90;;;;;;4988838;28;20586;-69
2022/09/19 05:36:51;;;;;;;13.25;3.88;;;8.40;99.90;;;;;;4994587;28;20093;-69
2022/09/19 05:39:18;;;;;;;7.85;4.25;;;8.50;99.90;;;;;;4992786;28;20061;-70
2022/09/19 05:41:49;;;;;;;10.27;4.00;;;8.50;99.90;;;;;;4992919;28;20385;-70
2022/09/19 05:44:18;;;;;;;12.52;3.95;;;8.60;99.90;;;;;;4992267;28;20050;-69
2022/09/19 05:46:52;;;;;;;9.38;4.15;;;8.60;99.90;;;;;;4980763;28;20047;-71
2022/09/19 05:49:21;;;;;;;9.73;3.80;;;8.60;99.90;;;;;;4997609;28;20485;-73
2022/09/19 05:51:48;;;;;;;9.15;3.90;;;8.70;99.90;;;;;;5005109;28;20046;-70
2022/09/19 05:54:21;;;;;;;8.05;3.97;;;8.70;99.90;;;;;;4975755;28;20488;-70
2022/09/19 05:57:27;;;;;;;9.57;4.40;;;8.70;99.90;;;;;;4957780;28;20616;-70
2022/09/19 05:59:56;;;;;;;13.80;4.10;;;8.70;99.90;;;;;;4948619;28;20162;-71
2022/09/19 06:02:23;;;;;;;9.13;4.82;;;8.80;99.90;;;;;;4956041;28;20058;-70
2022/09/19 06:04:57;;;;;;;15.10;3.85;;;8.80;99.90;;;;;;4935206;28;20541;-70
2022/09/19 06:07:24;;;;;;;8.88;4.05;;;8.80;99.90;;;;;;4937649;28;20573;-70
2022/09/19 06:09:53;;;;;;;11.30;4.68;;;8.80;99.90;;;;;;4951798;28;20962;-71
2022/09/19 06:12:23;;;;;;;10.70;4.35;;;8.80;99.90;;;;;;4954027;28;20046;-70
2022/09/19 06:14:52;;;;;;;8.93;3.85;;;8.90;99.90;;;;;;4952580;28;20055;-70
2022/09/19 06:17:20;;;;;;;13.10;4.25;;;8.90;99.90;;;;;;4937583;28;20039;-70
2022/09/19 06:19:53;;;;;;;8.95;3.75;;;8.90;99.90;;;;;;4934335;28;20641;-70
2022/09/19 06:22:23;;;;;;;10.65;4.38;;;8.90;99.90;;;;;;4951647;28;20050;-72
2022/09/19 06:24:53;;;;;;;10.00;3.90;;;8.90;99.90;;;;;;4952451;28;20051;-71
2022/09/19 06:27:21;;;;;;;7.65;3.78;;;8.90;99.90;;;;;;4924919;28;20047;-71
2022/09/19 06:29:49;;;;;;;11.40;4.57;;;9.00;99.90;;;;;;4989727;28;20133;-72
2022/09/19 06:32:22;;;;;;;11.98;4.55;;;9.10;99.90;;;;;;4991939;28;20042;-73
2022/09/19 06:35:16;;;;;;;10.07;4.40;;;9.10;99.90;;;;;;4988784;28;20516;-74
2022/09/19 06:37:45;;;;;;;11.38;4.68;;;9.20;99.90;;;;;;4987257;28;20390;-75
2022/09/19 06:40:18;;;;;;;9.57;4.50;;;9.10;99.90;;;;;;4986861;28;20057;-75
2022/09/19 06:43:06;;;;;;;8.00;4.05;;;9.10;99.90;;;;;;4988375;28;20521;-75
2022/09/19 06:45:47;;;;;;;10.10;3.80;;;9.10;99.90;;;;;;4991004;28;20535;-75
2022/09/19 06:48:38;;;;;;;7.35;4.45;;;9.10;99.90;;;;;;4986358;28;20057;-73
2022/09/19 06:51:21;;;;;;;13.45;4.38;;;9.20;99.90;;;;;;5005236;28;20046;-74
2022/09/19 06:53:49;;;;;;;8.32;4.13;;;9.20;99.90;;;;;;5005084;28;20412;-75
2022/09/19 06:56:17;;;;;;;10.55;4.20;;;9.30;99.90;;;;;;4990324;28;20050;-75
2022/09/19 06:58:44;;;;;;;13.68;4.60;;;9.40;99.90;;;;;;4973581;28;20037;-74
2022/09/19 07:01:12;;;;;;;12.85;4.75;;;9.50;99.90;;;;;;4990591;28;20051;-74
2022/09/19 07:03:41;;;;;;;11.65;4.15;;;9.50;99.90;;;;;;4992161;28;20559;-75
2022/09/19 07:06:11;;;;;;;9.70;4.32;;;9.50;99.90;;;;;;5006860;28;20050;-74
2022/09/19 07:08:44;;;;;;;8.82;3.88;;;9.50;99.90;;;;;;4974236;28;20173;-74
2022/09/19 07:11:11;;;;;;;11.35;4.53;;;9.50;99.90;;;;;;5006628;28;20097;-75
2022/09/19 07:13:43;;;;;;;13.60;4.53;;;9.50;99.90;;;;;;4989618;28;20054;-76
2022/09/19 07:16:11;;;;;;;12.68;4.35;;;9.50;99.90;;;;;;4988426;28;20516;-74
2022/09/19 07:18:39;;;;;;;8.30;4.20;;;9.40;99.90;;;;;;4990325;28;20122;-75
2022/09/19 07:21:25;;;;;;;9.68;4.05;;;9.50;99.90;;;;;;4990232;28;20504;-77
2022/09/19 07:23:57;;;;;;;14.68;5.00;;;9.50;99.90;;;;;;4989918;28;20531;-75
2022/09/19 07:26:48;;;;;;;10.93;4.55;;;9.50;99.90;;;;;;4980836;28;20591;-73
2022/09/19 07:29:19;;;;;;;12.00;4.73;;;9.50;99.90;;;;;;4985263;28;20038;-76
2022/09/19 07:31:46;;;;;;;13.48;4.90;;;9.40;99.90;;;;;;4985802;28;20130;-74
2022/09/19 07:34:15;;;;;;;11.75;4.88;;;9.40;99.90;;;;;;4984849;28;20505;-74
2022/09/19 07:36:48;;;;;;;12.10;4.35;;;9.50;99.90;;;;;;4986562;28;20401;-74
2022/09/19 07:39:15;;;;;;;8.88;5.25;;;9.60;99.90;;;;;;4985233;28;20043;-72
2022/09/19 07:42:06;;;;;;;9.45;4.22;;;9.50;99.90;;;;;;4929191;29;20687;-71
2022/09/19 07:44:52;;;;;;;10.73;3.63;;;9.60;99.90;;;;;;4927761;29;20545;-71
2022/09/19 07:47:49;;;;;;;11.00;4.63;;;9.70;99.90;;;;;;4875849;29;20053;-74
2022/09/19 07:50:35;;;;;;;9.65;4.30;;;9.80;99.90;;;;;;4893286;29;20071;-71
2022/09/19 07:53:17;;;;;;;11.32;3.95;;;9.80;99.90;;;;;;4873603;29;20483;-74
2022/09/19 07:55:52;;;;;;;11.30;4.00;;;9.80;99.90;;;;;;4862668;29;20550;-75
2022/09/19 07:58:21;;;;;;;10.30;4.22;;;9.90;99.90;;;;;;4886892;29;20072;-74
2022/09/19 08:00:59;;;;;;;9.82;4.28;;;9.90;99.90;;;;;;4875506;29;20044;-74
2022/09/19 08:03:46;;;;;;;10.60;3.65;;;10.00;99.90;;;;;;4891206;29;20424;-75
2022/09/19 08:06:17;;;;;;;8.25;4.30;;;10.20;99.90;;;;;;4884299;29;20061;-75
2022/09/19 08:08:45;;;;;;;12.90;4.68;;;10.30;99.90;;;;;;4876318;29;20068;-75
2022/09/19 08:11:35;;;;;;;7.90;3.75;;;10.50;99.90;;;;;;4880015;29;20056;-75
2022/09/19 08:14:03;;;;;;;11.15;3.83;;;10.50;99.90;;;;;;4890490;29;20049;-74
2022/09/19 08:16:31;;;;;;;9.13;3.80;;;10.50;99.90;;;;;;4887800;29;20057;-73
2022/09/19 08:18:59;;;;;;;9.50;3.88;;;10.70;99.90;;;;;;4899067;29;20423;-72
2022/09/19 08:21:31;;;;;;;11.38;3.95;;;10.90;99.90;;;;;;4905150;29;20052;-72
2022/09/19 08:23:59;;;;;;;9.02;3.90;;;11.00;99.90;;;;;;4939935;28;20069;-70
2022/09/19 08:26:26;;;;;;;9.52;3.92;;;10.90;99.90;;;;;;4986767;28;20050;-70
2022/09/19 08:28:54;;;;;;;9.30;3.72;;;10.80;99.90;;;;;;4983869;28;20039;-71
2022/09/19 08:31:25;;;;;;;7.55;3.95;;;10.80;99.90;;;;;;4986270;28;20042;-71
2022/09/19 08:33:52;;;;;;;9.65;3.30;;;10.80;99.90;;;;;;4988499;28;20042;-71
2022/09/19 08:36:20;;;;;;;8.60;3.92;;;11.00;99.90;;;;;;4989221;28;20515;-70
2022/09/19 08:38:50;;;;;;;7.82;3.38;;;11.10;99.90;;;;;;4989043;28;20042;-70
2022/09/19 08:41:36;;;;;;;8.43;3.33;;;11.30;99.90;;;;;;4988906;28;20114;-70
2022/09/19 08:44:31;;;;;;;8.48;3.45;;;11.40;99.90;;;;;;4988613;28;20046;-70
2022/09/19 08:47:17;;;;;;;8.90;3.35;;;11.40;99.90;;;;;;5007331;28;20057;-71
2022/09/19 08:49:54;;;;;;;10.45;3.83;;;11.50;99.90;;;;;;4977372;28;20412;-69
2022/09/19 08:52:36;;;;;;;5.93;3.00;;;11.60;99.90;;;;;;4976038;28;20050;-71
2022/09/19 08:55:18;;;;;;;10.93;3.58;;;11.70;99.90;;;;;;4990869;28;20046;-72
2022/09/19 08:57:58;;;;;;;7.13;3.38;;;11.90;99.90;;;;;;4989712;28;20042;-72
2022/09/19 09:00:38;;;;;;;6.15;2.70;;;12.10;99.90;;;;;;4996229;28;20125;-74
2022/09/19 09:03:16;;;;;;;6.80;3.30;;;12.20;99.90;;;;;;4991782;28;20057;-73
2022/09/19 09:06:04;;;;;;;7.22;2.97;;;12.40;99.90;;;;;;4987160;28;20079;-73
2022/09/19 09:08:35;;;;;;;6.05;2.53;;;12.50;99.90;;;;;;5006276;28;20626;-71
2022/09/19 09:11:49;;;;;;;7.00;3.10;;;12.50;99.90;;;;;;4972802;28;20137;-73
2022/09/19 09:14:48;;;;;;;8.02;2.83;;;12.50;99.90;;;;;;4985131;28;20050;-72
2022/09/19 09:18:02;;;;;;;7.75;3.00;;;12.50;99.90;;;;;;4992130;28;20044;-73
2022/09/19 09:20:45;;;;;;;6.28;2.95;;;12.40;99.90;;;;;;4963233;28;20560;-73
2022/09/19 09:23:19;;;;;;;5.05;2.80;;;12.40;99.90;;;;;;4979524;28;20043;-72
2022/09/19 09:26:21;;;;;;;6.90;3.00;;;12.40;99.90;;;;;;4987278;28;20054;-71
2022/09/19 09:29:17;;;;;;;6.40;2.83;;;12.50;99.90;;;;;;4998533;28;20515;-73
2022/09/19 09:32:16;;;;;;;5.67;2.87;;;12.40;99.90;;;;;;4974059;28;20481;-73
2022/09/19 09:35:16;;;;;;;7.28;3.15;;;12.30;99.90;;;;;;5008467;28;20289;-73
2022/09/19 09:38:00;;;;;;;11.05;3.13;;;12.30;99.90;;;;;;4990452;28;20068;-72
2022/09/19 09:43:27;;;;;;;8.32;2.90;;;12.30;99.90;;;;;;5006038;28;20053;-75
2022/09/19 09:45:59;;;;;;;9.25;3.05;;;12.40;99.90;;;;;;4991428;28;20461;-73
2022/09/19 09:48:31;;;;;;;6.78;3.00;;;12.30;99.90;;;;;;4975899;28;20077;-74
2022/09/19 09:51:09;;;;;;;7.40;3.38;;;12.50;99.90;;;;;;4976057;28;20563;-73
2022/09/19 09:54:04;;;;;;;6.68;2.60;;;12.60;99.90;;;;;;4983538;28;20410;-73
2022/09/19 09:56:53;;;;;;;6.90;2.80;;;12.60;99.90;;;;;;4990400;28;20518;-75
2022/09/19 10:05:50;;;;;;;6.53;2.97;;;12.80;99.90;;;;;;5005839;28;20058;-74
2022/09/19 10:08:30;;;;;;;6.55;2.95;;;12.80;99.90;;;;;;4973153;28;20113;-74
2022/09/19 10:11:22;;;;;;;6.15;2.75;;;12.70;99.90;;;;;;4991790;28;20135;-74
2022/09/19 10:14:20;;;;;;;11.15;3.05;;;12.60;99.90;;;;;;4973093;28;20117;-74
2022/09/19 10:16:53;;;;;;;6.15;2.60;;;12.60;99.90;;;;;;4999817;28;20106;-74
2022/09/19 10:19:47;;;;;;;8.63;2.72;;;12.70;99.90;;;;;;4990065;28;20034;-74
2022/09/19 10:22:17;;;;;;;7.50;2.83;;;12.80;99.90;;;;;;5000707;28;20110;-74
2022/09/19 10:24:59;;;;;;;6.25;2.53;;;13.10;99.90;;;;;;4971572;28;20134;-74
2022/09/19 10:27:31;;;;;;;5.78;2.65;;;13.30;99.90;;;;;;4989300;28;20046;-74
2022/09/19 10:30:19;;;;;;;8.95;3.33;;;13.50;99.90;;;;;;4986024;28;20121;-74
2022/09/19 10:32:50;;;;;;;9.32;2.78;;;13.40;99.90;;;;;;5011585;28;20408;-74
2022/09/19 10:35:37;;;;;;;7.00;2.53;;;13.20;99.90;;;;;;4989089;28;20421;-74
2022/09/19 10:38:15;;;;;;;6.28;2.88;;;13.10;99.90;;;;;;4971702;28;20061;-74
2022/09/19 10:41:01;;;;;;;6.13;3.03;;;13.00;99.90;;;;;;5013491;28;20065;-74
2022/09/19 10:43:48;;;;;;;7.28;2.90;;;12.90;99.90;;;;;;5006150;28;20049;-74
2022/09/19 10:46:31;;;;;;;5.43;2.65;;;12.80;99.90;;;;;;5008907;28;20528;-73
2022/09/19 10:49:34;;;;;;;8.23;2.85;;;12.60;99.90;;;;;;4969508;28;20057;-74
2022/09/19 10:52:04;;;;;;;8.57;3.20;;;12.70;99.90;;;;;;4986861;28;20061;-73
2022/09/19 10:54:42;;;;;;;9.23;4.15;;;13.00;99.90;;;;;;4969664;28;20053;-75
2022/09/19 10:57:44;;;;;;;6.18;2.50;;;13.30;99.90;;;;;;4981334;28;20121;-73
2022/09/19 11:00:31;;;;;;;6.32;3.20;;;13.40;99.90;;;;;;4913612;29;20052;-74
2022/09/19 11:03:29;;;;;;;8.52;2.92;;;13.70;99.90;;;;;;4911464;29;20117;-73
2022/09/19 11:06:12;;;;;;;7.45;3.08;;;13.90;99.90;;;;;;4874746;29;20052;-74
2022/09/19 11:08:51;;;;;;;5.00;2.58;;;13.60;99.90;;;;;;4879479;29;20079;-73
2022/09/19 11:11:38;;;;;;;8.98;2.85;;;12.80;99.90;;;;;;4896162;29;20060;-74
2022/09/19 11:14:19;;;;;;;8.57;3.17;;;12.40;99.90;;;;;;4882399;29;20086;-73
2022/09/19 11:17:27;;;;;;;7.68;3.05;;;12.60;99.90;;;;;;4896012;29;20056;-74
2022/09/19 11:20:32;;;;;;;7.85;2.60;;;13.10;99.90;;;;;;4910783;29;20546;-73
2022/09/19 11:23:15;;;;;;;6.65;3.28;;;13.70;99.90;;;;;;4860111;29;20056;-74
2022/09/19 11:26:11;;;;;;;11.32;3.10;;;14.10;99.90;;;;;;4884496;29;20063;-74
2022/09/19 11:28:44;;;;;;;7.47;3.17;;;14.30;99.90;;;;;;4895258;29;20490;-73
2022/09/19 11:31:12;;;;;;;11.70;3.17;;;14.10;99.90;;;;;;4898880;29;20602;-73
2022/09/19 11:33:56;;;;;;;9.23;3.45;;;13.90;99.90;;;;;;4896139;29;20115;-73
2022/09/19 11:37:14;;;;;;;10.20;3.10;;;13.90;99.90;;;;;;4950551;28;20135;-73
2022/09/19 11:39:51;;;;;;;6.80;3.10;;;13.70;99.90;;;;;;4976350;28;20056;-73
2022/09/19 11:42:50;;;;;;;6.43;2.78;;;13.70;99.90;;;;;;4994706;28;20070;-73
2022/09/19 11:45:19;;;;;;;6.55;3.20;;;14.00;99.90;;;;;;4989421;28;20492;-74
2022/09/19 11:48:20;;;;;;;9.05;3.60;;;14.00;99.90;;;;;;4981950;28;20043;-71
2022/09/19 11:51:07;;;;;;;6.80;2.63;;;14.20;99.90;;;;;;4963900;28;20669;-73
2022/09/19 11:54:04;;;;;;;8.48;3.50;;;14.20;99.90;;;;;;4972181;28;20489;-73
2022/09/19 11:57:00;;;;;;;7.55;2.95;;;14.20;99.90;;;;;;4978776;28;20050;-74
2022/09/19 11:59:35;;;;;;;;;;;14.20;99.90;;;;;;4998581;28;20780;-74
2022/09/19 12:02:28;;;;;;;8.13;3.15;;;14.10;99.90;;;;;;5000033;28;19965;-75
2022/09/19 12:05:03;;;;;;;8.30;3.55;;;14.20;99.90;;;;;;4988036;28;20038;-73
2022/09/19 12:08:08;;;;;;;6.18;3.40;;;14.00;99.90;;;;;;4982499;28;20041;-74
2022/09/19 12:10:45;;;;;;;9.02;3.40;;;14.10;99.90;;;;;;4985143;28;20058;-73
2022/09/19 12:13:38;;;;;;;7.68;3.42;;;14.10;99.90;;;;;;4985969;28;20096;-74
2022/09/19 12:16:10;;;;;;;7.97;3.75;;;14.20;99.90;;;;;;4976459;28;20061;-73
2022/09/19 12:18:52;;;;;;;8.38;3.72;;;13.90;99.90;;;;;;4978297;28;20158;-74
2022/09/19 12:21:24;;;;;;;7.88;2.80;;;13.90;99.90;;;;;;4975713;28;20382;-74
2022/09/19 12:27:29;;;;;;;7.13;3.22;;;13.90;99.90;;;;;;4998139;28;20470;-73
2022/09/19 12:30:13;;;;;;;6.70;3.50;;;13.90;99.90;;;;;;5003688;28;20493;-74
2022/09/19 12:33:06;;;;;;;9.73;3.13;;;14.10;99.90;;;;;;4992055;28;20054;-74
2022/09/19 12:35:47;;;;;;;7.55;3.28;;;14.40;99.90;;;;;;4985274;28;20085;-73
2022/09/19 12:38:39;;;;;;;6.18;3.42;;;14.40;99.90;;;;;;4989127;28;20038;-74
2022/09/19 12:41:10;;;;;;;7.68;3.10;;;14.70;99.90;;;;;;5006907;28;20049;-74
2022/09/19 12:43:48;;;;;;;5.95;3.10;;;14.90;99.90;;;;;;4993431;28;20093;-74
2022/09/19 12:46:43;;;;;;;5.22;3.38;;;14.70;99.90;;;;;;4979017;28;20050;-74
2022/09/19 12:49:32;;;;;;;10.65;3.72;;;15.10;99.90;;;;;;4987744;28;20397;-73
2022/09/19 12:52:18;;;;;;;9.20;3.47;;;14.90;99.90;;;;;;4991020;28;20512;-74
2022/09/19 12:55:04;;;;;;;6.82;3.33;;;15.10;99.90;;;;;;4985958;28;20553;-75
2022/09/19 12:57:57;;;;;;;8.05;3.60;;;15.10;99.90;;;;;;4985486;28;20088;-74
2022/09/19 13:00:25;;;;;;;10.93;4.50;;;15.20;99.90;;;;;;4990070;28;20046;-70
2022/09/19 13:03:07;;;;;;;9.00;3.60;;;15.30;99.90;;;;;;4975689;28;20072;-73
2022/09/19 13:05:45;;;;;;;7.13;3.47;;;15.30;99.90;;;;;;4990990;28;20157;-74
2022/09/19 13:08:17;;;;;;;5.60;3.20;;;15.10;99.90;;;;;;4975424;28;20046;-74
2022/09/19 13:10:50;;;;;;;;;;;14.80;99.90;;;;;;4990439;28;20440;-73
2022/09/19 13:13:46;;;;;;;8.73;3.67;;;14.60;99.90;;;;;;4991635;28;20024;-67
2022/09/19 13:16:16;;;;;;;7.13;3.60;;;14.90;99.90;;;;;;4992999;28;20519;-74
2022/09/19 13:24:53;;;;;;;5.70;3.38;;;16.50;99.90;;;;;;4989897;28;20137;-74
2022/09/19 13:27:22;;;;;;;7.88;3.83;;;18.40;99.90;;;;;;4995072;28;20077;-75
2022/09/19 13:29:53;;;;;;;8.18;3.70;;;18.80;99.90;;;;;;5014230;28;20061;-74
2022/09/19 13:32:31;;;;;;;7.00;3.90;;;19.00;99.90;;;;;;4989283;28;20054;-75
2022/09/19 13:35:22;;;;;;;7.43;4.05;;;19.30;99.90;;;;;;4992552;28;20397;-75
2022/09/19 13:37:59;;;;;;;7.80;4.10;;;18.00;99.90;;;;;;4975545;28;20046;-74
2022/09/19 13:41:05;;;;;;;6.55;4.38;;;17.10;99.90;;;;;;4984457;28;20047;-74
2022/09/19 13:44:05;;;;;;;7.25;4.38;;;16.00;99.90;;;;;;4996660;28;20050;-73
2022/09/19 13:46:40;;;;;;;7.30;3.90;;;14.70;99.90;;;;;;5003818;28;20046;-77
2022/09/19 13:49:26;;;;;;;5.45;2.88;;;13.80;99.90;;;;;;4989113;28;20050;-72
2022/09/19 13:51:59;;;;;;;13.77;5.80;;;12.70;99.90;;;;;;4990062;28;20368;-73
2022/09/19 13:54:32;;;;;;;5.32;2.58;;;12.20;99.90;;;;;;4993833;28;20505;-71
2022/09/19 13:57:02;;;;;;;10.23;3.08;;;11.90;99.90;;;;;;4986699;28;20048;-72
2022/09/19 13:59:39;;;;;;;3.85;2.60;;;11.70;99.90;;;;;;4987004;28;20053;-73
2022/09/19 14:02:12;;;;;;;6.15;2.47;;;11.80;99.90;;;;;;4988711;28;20042;-72
2022/09/19 14:04:55;;;;;;;5.10;2.30;;;12.40;99.90;;;;;;4973574;28;20428;-72
2022/09/19 14:07:50;;;;;;;7.35;2.70;;;13.30;99.90;;;;;;4972967;28;20066;-73
2022/09/19 14:10:48;;;;;;;6.45;2.65;;;13.50;99.90;;;;;;4986244;28;20047;-72
2022/09/19 14:13:24;;;;;;;6.70;2.80;;;13.50;99.90;;;;;;4984106;28;20074;-73